sensor_id;sensor_type;location;lat;lon;timestamp;pressure;altitude;pressure_sealevel;temperature;humidity
41234;BME280;26968;42.686;23.352;2023-05-10T00:00:04;95501.13;;;11.55;79.96
41234;BME280;26968;42.686;23.352;2023-05-10T00:02:31;95475.97;;;11.42;78.66
41234;BME280;26968;42.686;23.352;2023-05-10T00:04:56;95459.28;;;11.27;79.05
41234;BME280;26968;42.686;23.352;2023-05-10T00:07:22;95476.47;;;11.44;79.18
41234;BME280;26968;42.686;23.352;2023-05-10T00:09:47;95519.19;;;11.63;79.50
41234;BME280;26968;42.686;23.352;2023-05-10T00:12:13;95496.09;;;11.58;80.17
41234;BME280;26968;42.686;23.352;2023-05-10T00:14:39;95491.59;;;11.49;79.93
41234;BME280;26968;42.686;23.352;2023-05-10T00:17:04;95466.13;;;11.38;79.59
41234;BME280;26968;42.686;23.352;2023-05-10T00:19:30;95503.28;;;11.48;79.18
41234;BME280;26968;42.686;23.352;2023-05-10T00:21:55;95457.44;;;11.17;79.32
41234;BME280;26968;42.686;23.352;2023-05-10T00:24:20;95468.06;;;11.27;79.54
41234;BME280;26968;42.686;23.352;2023-05-10T00:26:46;95503.56;;;11.51;79.91
41234;BME280;26968;42.686;23.352;2023-05-10T00:29:11;95473.09;;;11.29;79.67
41234;BME280;26968;42.686;23.352;2023-05-10T00:31:37;95448.69;;;11.16;78.92
41234;BME280;26968;42.686;23.352;2023-05-10T00:34:02;95477.59;;;11.33;78.93
41234;BME280;26968;42.686;23.352;2023-05-10T00:36:28;95482.09;;;11.33;79.08
41234;BME280;26968;42.686;23.352;2023-05-10T00:38:53;95409.22;;;10.84;79.52
41234;BME280;26968;42.686;23.352;2023-05-10T00:41:18;95468.34;;;11.20;79.06
41234;BME280;26968;42.686;23.352;2023-05-10T00:43:44;95445.31;;;10.91;79.49
41234;BME280;26968;42.686;23.352;2023-05-10T00:46:09;95431.25;;;10.85;80.41
41234;BME280;26968;42.686;23.352;2023-05-10T00:48:35;95478.41;;;11.29;79.42
41234;BME280;26968;42.686;23.352;2023-05-10T00:51:02;95492.22;;;11.26;79.27
41234;BME280;26968;42.686;23.352;2023-05-10T00:53:31;95458.53;;;11.11;79.44
41234;BME280;26968;42.686;23.352;2023-05-10T00:55:57;95428.63;;;10.70;79.37
41234;BME280;26968;42.686;23.352;2023-05-10T00:58:22;95390.44;;;10.56;79.86
41234;BME280;26968;42.686;23.352;2023-05-10T01:00:49;95492.22;;;11.20;79.39
41234;BME280;26968;42.686;23.352;2023-05-10T01:03:15;95473.41;;;11.12;79.42
41234;BME280;26968;42.686;23.352;2023-05-10T01:05:42;95424.84;;;10.91;79.34
41234;BME280;26968;42.686;23.352;2023-05-10T01:08:07;95465.69;;;11.10;79.79
41234;BME280;26968;42.686;23.352;2023-05-10T01:10:33;95491.44;;;11.20;79.49
41234;BME280;26968;42.686;23.352;2023-05-10T01:12:59;95472.09;;;10.84;78.91
41234;BME280;26968;42.686;23.352;2023-05-10T01:15:25;95450.13;;;10.73;79.44
41234;BME280;26968;42.686;23.352;2023-05-10T01:17:51;95475.84;;;10.83;79.80
41234;BME280;26968;42.686;23.352;2023-05-10T01:20:17;95458.31;;;10.77;79.99
41234;BME280;26968;42.686;23.352;2023-05-10T01:28:33;95475.56;;;10.90;79.84
41234;BME280;26968;42.686;23.352;2023-05-10T01:31:28;95469.19;;;10.96;79.58
41234;BME280;26968;42.686;23.352;2023-05-10T01:33:58;95473.41;;;10.92;78.46
41234;BME280;26968;42.686;23.352;2023-05-10T01:36:42;95472.34;;;11.03;78.64
41234;BME280;26968;42.686;23.352;2023-05-10T01:39:16;95453.00;;;10.92;78.17
41234;BME280;26968;42.686;23.352;2023-05-10T01:41:54;95464.94;;;10.90;77.82
41234;BME280;26968;42.686;23.352;2023-05-10T01:44:29;95430.19;;;10.76;78.32
41234;BME280;26968;42.686;23.352;2023-05-10T01:47:10;95460.66;;;10.99;77.50
41234;BME280;26968;42.686;23.352;2023-05-10T01:49:56;95461.47;;;10.94;78.19
41234;BME280;26968;42.686;23.352;2023-05-10T01:52:31;95459.91;;;10.98;79.20
41234;BME280;26968;42.686;23.352;2023-05-10T01:55:10;95385.16;;;10.51;77.95
41234;BME280;26968;42.686;23.352;2023-05-10T01:57:39;95463.63;;;10.87;77.85
41234;BME280;26968;42.686;23.352;2023-05-10T02:00:07;95412.47;;;10.51;77.39
41234;BME280;26968;42.686;23.352;2023-05-10T02:02:37;95443.19;;;10.77;77.75
41234;BME280;26968;42.686;23.352;2023-05-10T02:05:05;95434.97;;;10.79;78.40
41234;BME280;26968;42.686;23.352;2023-05-10T02:07:33;95425.19;;;10.74;78.37
41234;BME280;26968;42.686;23.352;2023-05-10T02:10:02;95475.53;;;11.05;77.85
41234;BME280;26968;42.686;23.352;2023-05-10T02:12:31;95431.81;;;10.82;78.28
41234;BME280;26968;42.686;23.352;2023-05-10T02:15:02;95467.84;;;10.93;79.13
41234;BME280;26968;42.686;23.352;2023-05-10T02:17:28;95441.06;;;10.84;78.78
41234;BME280;26968;42.686;23.352;2023-05-10T02:19:56;95428.34;;;10.71;78.39
41234;BME280;26968;42.686;23.352;2023-05-10T02:22:23;95472.41;;;10.82;77.72
41234;BME280;26968;42.686;23.352;2023-05-10T02:24:50;95469.19;;;10.86;77.36
41234;BME280;26968;42.686;23.352;2023-05-10T02:27:17;95476.91;;;10.82;77.33
41234;BME280;26968;42.686;23.352;2023-05-10T02:29:45;95470.53;;;10.78;77.52
41234;BME280;26968;42.686;23.352;2023-05-10T02:32:11;95452.00;;;10.68;77.59
41234;BME280;26968;42.686;23.352;2023-05-10T02:34:38;95430.78;;;10.42;76.99
41234;BME280;26968;42.686;23.352;2023-05-10T02:37:04;95432.63;;;10.47;75.87
41234;BME280;26968;42.686;23.352;2023-05-10T02:39:31;95451.44;;;10.61;76.03
41234;BME280;26968;42.686;23.352;2023-05-10T02:41:58;95314.94;;;9.57;74.32
41234;BME280;26968;42.686;23.352;2023-05-10T02:44:26;95469.47;;;10.49;75.17
41234;BME280;26968;42.686;23.352;2023-05-10T02:46:56;95442.69;;;10.25;74.23
41234;BME280;26968;42.686;23.352;2023-05-10T02:49:22;95433.16;;;10.24;74.58
41234;BME280;26968;42.686;23.352;2023-05-10T02:51:51;95451.19;;;10.32;74.46
41234;BME280;26968;42.686;23.352;2023-05-10T02:54:27;95471.88;;;10.35;74.53
41234;BME280;26968;42.686;23.352;2023-05-10T02:56:57;95446.66;;;10.22;74.21
41234;BME280;26968;42.686;23.352;2023-05-10T02:59:24;95381.94;;;9.73;74.95
41234;BME280;26968;42.686;23.352;2023-05-10T03:01:50;95419.91;;;10.19;75.17
41234;BME280;26968;42.686;23.352;2023-05-10T03:04:15;95435.53;;;10.25;74.72
41234;BME280;26968;42.686;23.352;2023-05-10T03:06:41;95434.75;;;10.20;74.37
41234;BME280;26968;42.686;23.352;2023-05-10T03:09:07;95435.50;;;10.15;74.00
41234;BME280;26968;42.686;23.352;2023-05-10T03:11:47;95472.94;;;10.44;74.73
41234;BME280;26968;42.686;23.352;2023-05-10T03:14:39;95480.34;;;10.32;73.73
41234;BME280;26968;42.686;23.352;2023-05-10T03:17:30;95450.09;;;10.13;74.51
41234;BME280;26968;42.686;23.352;2023-05-10T03:20:06;95411.63;;;9.80;74.69
41234;BME280;26968;42.686;23.352;2023-05-10T03:22:37;95480.34;;;10.22;74.68
41234;BME280;26968;42.686;23.352;2023-05-10T03:25:07;95438.91;;;9.80;74.44
41234;BME280;26968;42.686;23.352;2023-05-10T03:27:36;95443.72;;;9.98;75.01
41234;BME280;26968;42.686;23.352;2023-05-10T03:30:05;95457.00;;;10.19;74.38
41234;BME280;26968;42.686;23.352;2023-05-10T03:32:31;95483.00;;;10.22;72.61
41234;BME280;26968;42.686;23.352;2023-05-10T03:34:57;95470.22;;;10.14;73.55
41234;BME280;26968;42.686;23.352;2023-05-10T03:37:23;95466.22;;;9.96;72.77
41234;BME280;26968;42.686;23.352;2023-05-10T03:39:48;95467.81;;;9.97;72.64
41234;BME280;26968;42.686;23.352;2023-05-10T03:42:14;95483.47;;;10.03;72.18
41234;BME280;26968;42.686;23.352;2023-05-10T03:44:39;95421.38;;;9.69;72.58
41234;BME280;26968;42.686;23.352;2023-05-10T03:47:05;95479.75;;;10.10;74.33
41234;BME280;26968;42.686;23.352;2023-05-10T03:49:30;95480.88;;;10.19;72.64
41234;BME280;26968;42.686;23.352;2023-05-10T03:51:56;95461.22;;;10.04;72.63
41234;BME280;26968;42.686;23.352;2023-05-10T03:54:21;95483.97;;;9.95;73.30
41234;BME280;26968;42.686;23.352;2023-05-10T03:56:47;95474.69;;;9.88;72.67
41234;BME280;26968;42.686;23.352;2023-05-10T03:59:13;95442.03;;;9.62;72.48
41234;BME280;26968;42.686;23.352;2023-05-10T04:01:38;95477.34;;;9.93;73.02
41234;BME280;26968;42.686;23.352;2023-05-10T04:04:04;95462.72;;;9.75;73.31
41234;BME280;26968;42.686;23.352;2023-05-10T04:06:29;95507.81;;;10.00;72.49
41234;BME280;26968;42.686;23.352;2023-05-10T04:08:56;95474.41;;;9.89;72.81
41234;BME280;26968;42.686;23.352;2023-05-10T04:11:21;95468.00;;;9.70;73.24
41234;BME280;26968;42.686;23.352;2023-05-10T04:13:47;95501.50;;;10.06;72.99
41234;BME280;26968;42.686;23.352;2023-05-10T04:16:12;95426.31;;;9.30;73.06
41234;BME280;26968;42.686;23.352;2023-05-10T04:18:38;95465.38;;;9.80;72.90
41234;BME280;26968;42.686;23.352;2023-05-10T04:21:04;95478.13;;;9.88;72.55
41234;BME280;26968;42.686;23.352;2023-05-10T04:23:36;95458.75;;;9.67;73.21
41234;BME280;26968;42.686;23.352;2023-05-10T04:26:01;95493.50;;;9.91;72.75
41234;BME280;26968;42.686;23.352;2023-05-10T04:28:27;95462.47;;;9.82;72.70
41234;BME280;26968;42.686;23.352;2023-05-10T04:30:52;95512.94;;;10.17;73.43
41234;BME280;26968;42.686;23.352;2023-05-10T04:33:18;95489.00;;;10.02;73.58
41234;BME280;26968;42.686;23.352;2023-05-10T04:35:43;95445.78;;;9.76;73.08
41234;BME280;26968;42.686;23.352;2023-05-10T04:38:10;95449.78;;;9.84;73.81
41234;BME280;26968;42.686;23.352;2023-05-10T04:40:35;95483.75;;;10.12;73.10
41234;BME280;26968;42.686;23.352;2023-05-10T04:43:01;95443.41;;;9.75;72.77
41234;BME280;26968;42.686;23.352;2023-05-10T04:45:26;95490.09;;;10.11;72.27
41234;BME280;26968;42.686;23.352;2023-05-10T04:47:52;95446.59;;;9.82;72.55
41234;BME280;26968;42.686;23.352;2023-05-10T04:50:18;95352.72;;;9.32;71.31
41234;BME280;26968;42.686;23.352;2023-05-10T04:52:43;95447.94;;;9.89;73.23
41234;BME280;26968;42.686;23.352;2023-05-10T04:55:08;95475.50;;;9.98;72.85
41234;BME280;26968;42.686;23.352;2023-05-10T04:57:35;95424.31;;;9.67;73.26
41234;BME280;26968;42.686;23.352;2023-05-10T05:00:00;95428.31;;;9.75;72.90
41234;BME280;26968;42.686;23.352;2023-05-10T05:02:26;95482.44;;;10.25;72.44
41234;BME280;26968;42.686;23.352;2023-05-10T05:04:51;95506.63;;;10.43;72.24
41234;BME280;26968;42.686;23.352;2023-05-10T05:07:16;95521.44;;;10.55;72.24
41234;BME280;26968;42.686;23.352;2023-05-10T05:09:42;95505.81;;;10.58;71.75
41234;BME280;26968;42.686;23.352;2023-05-10T05:12:07;95455.16;;;10.19;72.02
41234;BME280;26968;42.686;23.352;2023-05-10T05:14:33;95513.78;;;10.63;72.26
41234;BME280;26968;42.686;23.352;2023-05-10T05:16:58;95477.38;;;10.13;71.80
41234;BME280;26968;42.686;23.352;2023-05-10T05:19:23;95499.44;;;10.49;71.31
41234;BME280;26968;42.686;23.352;2023-05-10T05:21:49;95484.56;;;10.38;72.02
41234;BME280;26968;42.686;23.352;2023-05-10T05:24:14;95499.94;;;10.31;71.93
41234;BME280;26968;42.686;23.352;2023-05-10T05:26:40;95442.88;;;9.88;72.73
41234;BME280;26968;42.686;23.352;2023-05-10T05:29:06;95454.56;;;10.07;72.71
41234;BME280;26968;42.686;23.352;2023-05-10T05:31:32;95526.47;;;10.46;73.79
41234;BME280;26968;42.686;23.352;2023-05-10T05:33:57;95485.66;;;10.27;71.31
41234;BME280;26968;42.686;23.352;2023-05-10T05:36:22;95485.91;;;10.30;71.52
41234;BME280;26968;42.686;23.352;2023-05-10T05:38:48;95526.78;;;10.60;72.33
41234;BME280;26968;42.686;23.352;2023-05-10T05:41:13;95502.63;;;10.61;72.20
41234;BME280;26968;42.686;23.352;2023-05-10T05:43:39;95528.09;;;10.67;72.89
41234;BME280;26968;42.686;23.352;2023-05-10T05:46:04;95527.84;;;10.59;72.22
41234;BME280;26968;42.686;23.352;2023-05-10T05:48:30;95471.06;;;10.24;71.73
41234;BME280;26968;42.686;23.352;2023-05-10T05:50:56;95524.63;;;10.47;71.96
41234;BME280;26968;42.686;23.352;2023-05-10T05:53:22;95538.41;;;10.38;72.99
41234;BME280;26968;42.686;23.352;2023-05-10T05:55:55;95527.03;;;10.48;72.43
41234;BME280;26968;42.686;23.352;2023-05-10T05:58:22;95540.03;;;10.55;71.92
41234;BME280;26968;42.686;23.352;2023-05-10T06:00:48;95534.19;;;10.58;71.52
41234;BME280;26968;42.686;23.352;2023-05-10T06:03:13;95487.22;;;10.33;72.32
41234;BME280;26968;42.686;23.352;2023-05-10T06:05:39;95536.03;;;10.47;72.58
41234;BME280;26968;42.686;23.352;2023-05-10T06:08:05;95519.09;;;10.58;72.50
41234;BME280;26968;42.686;23.352;2023-05-10T06:10:30;95520.66;;;10.49;72.64
41234;BME280;26968;42.686;23.352;2023-05-10T06:12:56;95410.31;;;9.87;72.41
41234;BME280;26968;42.686;23.352;2023-05-10T06:15:21;95504.47;;;10.30;71.84
41234;BME280;26968;42.686;23.352;2023-05-10T06:17:47;95499.41;;;10.19;71.19
41234;BME280;26968;42.686;23.352;2023-05-10T06:20:14;95504.47;;;10.35;72.27
41234;BME280;26968;42.686;23.352;2023-05-10T06:22:40;95486.38;;;10.07;73.11
41234;BME280;26968;42.686;23.352;2023-05-10T06:25:06;95548.22;;;10.48;71.93
41234;BME280;26968;42.686;23.352;2023-05-10T06:27:32;95525.66;;;10.30;72.17
41234;BME280;26968;42.686;23.352;2023-05-10T06:29:58;95553.56;;;10.58;72.35
41234;BME280;26968;42.686;23.352;2023-05-10T06:32:24;95534.72;;;10.50;72.35
41234;BME280;26968;42.686;23.352;2023-05-10T06:34:50;95199.09;;;8.46;72.51
41234;BME280;26968;42.686;23.352;2023-05-10T06:37:16;95482.72;;;10.18;71.74
41234;BME280;26968;42.686;23.352;2023-05-10T06:39:41;95520.91;;;10.32;72.49
41234;BME280;26968;42.686;23.352;2023-05-10T06:42:08;95555.66;;;10.46;71.64
41234;BME280;26968;42.686;23.352;2023-05-10T06:44:33;95513.41;;;10.09;71.84
41234;BME280;26968;42.686;23.352;2023-05-10T06:46:58;95528.59;;;10.39;72.15
41234;BME280;26968;42.686;23.352;2023-05-10T06:49:24;95493.78;;;10.00;70.53
41234;BME280;26968;42.686;23.352;2023-05-10T06:51:49;95543.97;;;10.27;71.41
41234;BME280;26968;42.686;23.352;2023-05-10T06:54:16;95524.09;;;10.34;71.05
41234;BME280;26968;42.686;23.352;2023-05-10T06:56:42;95512.34;;;10.10;70.69
41234;BME280;26968;42.686;23.352;2023-05-10T06:59:08;95549.81;;;10.29;71.67
41234;BME280;26968;42.686;23.352;2023-05-10T07:01:33;95547.16;;;10.34;71.96
41234;BME280;26968;42.686;23.352;2023-05-10T07:03:59;95429.59;;;9.67;72.68
41234;BME280;26968;42.686;23.352;2023-05-10T07:06:24;95543.72;;;10.49;71.82
41234;BME280;26968;42.686;23.352;2023-05-10T07:08:50;95518.16;;;10.07;70.26
41234;BME280;26968;42.686;23.352;2023-05-10T07:11:15;95545.75;;;10.16;70.72
41234;BME280;26968;42.686;23.352;2023-05-10T07:13:41;95531.75;;;10.31;70.39
41234;BME280;26968;42.686;23.352;2023-05-10T07:16:10;95512.41;;;10.25;70.88
41234;BME280;26968;42.686;23.352;2023-05-10T07:18:37;95553.81;;;10.57;70.41
41234;BME280;26968;42.686;23.352;2023-05-10T07:21:03;95438.13;;;9.95;70.47
41234;BME280;26968;42.686;23.352;2023-05-10T07:23:28;95567.34;;;10.86;70.22
41234;BME280;26968;42.686;23.352;2023-05-10T07:25:55;95475.56;;;10.34;70.40
41234;BME280;26968;42.686;23.352;2023-05-10T07:28:22;95457.56;;;10.21;69.94
41234;BME280;26968;42.686;23.352;2023-05-10T07:30:48;95527.56;;;10.55;69.22
41234;BME280;26968;42.686;23.352;2023-05-10T07:33:14;95569.22;;;10.95;69.81
41234;BME280;26968;42.686;23.352;2023-05-10T07:35:40;95571.06;;;10.79;69.09
41234;BME280;26968;42.686;23.352;2023-05-10T07:38:05;95554.34;;;10.84;68.52
41234;BME280;26968;42.686;23.352;2023-05-10T07:40:31;95570.28;;;10.89;68.11
41234;BME280;26968;42.686;23.352;2023-05-10T07:42:57;95487.75;;;10.25;69.89
41234;BME280;26968;42.686;23.352;2023-05-10T07:45:23;95519.34;;;10.57;68.81
41234;BME280;26968;42.686;23.352;2023-05-10T07:47:48;95579.03;;;11.00;67.44
41234;BME280;26968;42.686;23.352;2023-05-10T07:50:14;95573.22;;;11.13;68.46
41234;BME280;26968;42.686;23.352;2023-05-10T07:52:40;95545.06;;;11.02;68.98
41234;BME280;26968;42.686;23.352;2023-05-10T07:55:06;95516.69;;;10.77;67.97
41234;BME280;26968;42.686;23.352;2023-05-10T07:57:33;95556.75;;;10.91;67.85
41234;BME280;26968;42.686;23.352;2023-05-10T07:59:59;95539.75;;;11.02;67.27
41234;BME280;26968;42.686;23.352;2023-05-10T08:02:24;95532.88;;;11.06;66.79
41234;BME280;26968;42.686;23.352;2023-05-10T08:04:50;95585.38;;;11.24;68.13
41234;BME280;26968;42.686;23.352;2023-05-10T08:07:15;95584.88;;;11.17;67.31
41234;BME280;26968;42.686;23.352;2023-05-10T08:09:44;95550.13;;;10.88;66.09
41234;BME280;26968;42.686;23.352;2023-05-10T08:12:12;95549.31;;;10.88;66.16
41234;BME280;26968;42.686;23.352;2023-05-10T08:14:38;95527.03;;;10.68;67.43
41234;BME280;26968;42.686;23.352;2023-05-10T08:17:03;95527.31;;;10.87;69.05
41234;BME280;26968;42.686;23.352;2023-05-10T08:19:29;95536.03;;;11.03;68.02
41234;BME280;26968;42.686;23.352;2023-05-10T08:21:55;95557.25;;;11.28;67.18
41234;BME280;26968;42.686;23.352;2023-05-10T08:24:23;95498.94;;;10.82;65.67
41234;BME280;26968;42.686;23.352;2023-05-10T08:26:48;95521.75;;;10.73;67.77
41234;BME280;26968;42.686;23.352;2023-05-10T08:29:14;95561.22;;;11.26;66.08
41234;BME280;26968;42.686;23.352;2023-05-10T08:31:40;95565.22;;;11.23;68.01
41234;BME280;26968;42.686;23.352;2023-05-10T08:34:05;95578.97;;;11.45;66.86
41234;BME280;26968;42.686;23.352;2023-05-10T08:36:31;95536.81;;;11.29;65.89
41234;BME280;26968;42.686;23.352;2023-05-10T08:39:01;95521.41;;;11.15;67.65
41234;BME280;26968;42.686;23.352;2023-05-10T08:41:28;95587.22;;;11.59;67.34
41234;BME280;26968;42.686;23.352;2023-05-10T08:43:55;95563.34;;;11.44;67.86
41234;BME280;26968;42.686;23.352;2023-05-10T08:46:22;95531.00;;;11.11;69.39
41234;BME280;26968;42.686;23.352;2023-05-10T08:48:50;95584.81;;;11.52;69.58
41234;BME280;26968;42.686;23.352;2023-05-10T08:51:19;95585.09;;;11.41;68.87
41234;BME280;26968;42.686;23.352;2023-05-10T08:53:47;95451.44;;;10.56;69.47
41234;BME280;26968;42.686;23.352;2023-05-10T08:56:13;95556.72;;;11.31;70.50
41234;BME280;26968;42.686;23.352;2023-05-10T08:58:41;95581.59;;;11.60;70.84
41234;BME280;26968;42.686;23.352;2023-05-10T09:01:13;95503.13;;;11.19;70.89
41234;BME280;26968;42.686;23.352;2023-05-10T09:03:41;95567.28;;;11.46;70.55
41234;BME280;26968;42.686;23.352;2023-05-10T09:06:07;95568.06;;;11.57;70.55
41234;BME280;26968;42.686;23.352;2023-05-10T09:08:33;95548.44;;;11.58;71.63
41234;BME280;26968;42.686;23.352;2023-05-10T09:11:00;95566.94;;;11.83;69.83
41234;BME280;26968;42.686;23.352;2023-05-10T09:13:27;95528.72;;;11.79;69.37
41234;BME280;26968;42.686;23.352;2023-05-10T09:15:53;95487.31;;;11.53;68.82
41234;BME280;26968;42.686;23.352;2023-05-10T09:18:19;95539.03;;;11.86;66.81
41234;BME280;26968;42.686;23.352;2023-05-10T09:20:44;95565.28;;;12.03;66.82
41234;BME280;26968;42.686;23.352;2023-05-10T09:23:10;95568.94;;;12.17;66.77
41234;BME280;26968;42.686;23.352;2023-05-10T09:25:36;95577.19;;;12.20;66.17
41234;BME280;26968;42.686;23.352;2023-05-10T09:28:06;95580.59;;;12.26;68.38
41234;BME280;26968;42.686;23.352;2023-05-10T09:30:33;95501.28;;;11.94;69.05
41234;BME280;26968;42.686;23.352;2023-05-10T09:32:59;95554.72;;;12.36;67.83
41234;BME280;26968;42.686;23.352;2023-05-10T09:35:27;95575.44;;;12.50;67.65
41234;BME280;26968;42.686;23.352;2023-05-10T09:37:55;95410.69;;;11.26;66.51
41234;BME280;26968;42.686;23.352;2023-05-10T09:40:24;95576.00;;;12.42;66.16
41234;BME280;26968;42.686;23.352;2023-05-10T09:43:06;95480.88;;;11.79;66.88
41234;BME280;26968;42.686;23.352;2023-05-10T09:45:34;95553.16;;;12.35;67.58
41234;BME280;26968;42.686;23.352;2023-05-10T09:48:01;95499.06;;;12.06;67.44
41234;BME280;26968;42.686;23.352;2023-05-10T09:50:28;95568.25;;;12.50;67.00
41234;BME280;26968;42.686;23.352;2023-05-10T09:52:58;95532.06;;;12.05;66.49
41234;BME280;26968;42.686;23.352;2023-05-10T09:55:26;95560.06;;;12.36;66.80
41234;BME280;26968;42.686;23.352;2023-05-10T09:58:02;95422.59;;;11.44;66.06
41234;BME280;26968;42.686;23.352;2023-05-10T10:00:35;95452.50;;;11.75;65.74
41234;BME280;26968;42.686;23.352;2023-05-10T10:03:02;95494.31;;;12.03;64.63
41234;BME280;26968;42.686;23.352;2023-05-10T10:05:29;95551.28;;;12.41;65.23
41234;BME280;26968;42.686;23.352;2023-05-10T10:07:56;95450.63;;;11.60;64.87
41234;BME280;26968;42.686;23.352;2023-05-10T10:10:22;95556.31;;;12.37;65.28
41234;BME280;26968;42.686;23.352;2023-05-10T10:12:48;95511.94;;;11.84;64.83
41234;BME280;26968;42.686;23.352;2023-05-10T10:15:14;95495.41;;;11.97;65.30
41234;BME280;26968;42.686;23.352;2023-05-10T10:17:40;95460.88;;;11.92;65.17
41234;BME280;26968;42.686;23.352;2023-05-10T10:20:07;95531.69;;;12.22;65.26
41234;BME280;26968;42.686;23.352;2023-05-10T10:22:33;95537.16;;;12.41;65.04
41234;BME280;26968;42.686;23.352;2023-05-10T10:24:59;95478.19;;;11.89;66.64
41234;BME280;26968;42.686;23.352;2023-05-10T10:27:34;95504.09;;;12.13;67.11
41234;BME280;26968;42.686;23.352;2023-05-10T10:33:27;95543.34;;;12.70;66.07
41234;BME280;26968;42.686;23.352;2023-05-10T10:35:58;95537.59;;;12.92;64.54
41234;BME280;26968;42.686;23.352;2023-05-10T10:38:24;95519.59;;;12.79;62.97
41234;BME280;26968;42.686;23.352;2023-05-10T10:41:11;95503.84;;;12.87;64.04
41234;BME280;26968;42.686;23.352;2023-05-10T10:43:47;95537.56;;;12.97;60.89
41234;BME280;26968;42.686;23.352;2023-05-10T10:46:14;95541.53;;;13.33;62.65
41234;BME280;26968;42.686;23.352;2023-05-10T10:49:08;95542.06;;;13.30;62.23
41234;BME280;26968;42.686;23.352;2023-05-10T10:51:40;95541.53;;;13.28;61.72
41234;BME280;26968;42.686;23.352;2023-05-10T10:54:12;95548.09;;;13.12;61.08
41234;BME280;26968;42.686;23.352;2023-05-10T10:56:37;95527.38;;;13.04;60.12
41234;BME280;26968;42.686;23.352;2023-05-10T10:59:03;95539.78;;;13.19;62.34
41234;BME280;26968;42.686;23.352;2023-05-10T11:01:35;95424.53;;;12.55;60.68
41234;BME280;26968;42.686;23.352;2023-05-10T11:06:33;95550.72;;;13.17;62.88
41234;BME280;26968;42.686;23.352;2023-05-10T11:08:59;95529.88;;;13.24;63.38
41234;BME280;26968;42.686;23.352;2023-05-10T11:11:25;95472.88;;;12.96;62.57
41234;BME280;26968;42.686;23.352;2023-05-10T11:13:50;95478.16;;;13.01;60.89
41234;BME280;26968;42.686;23.352;2023-05-10T11:16:17;95539.31;;;13.40;61.88
41234;BME280;26968;42.686;23.352;2023-05-10T11:19:01;95486.28;;;13.15;61.01
41234;BME280;26968;42.686;23.352;2023-05-10T11:21:28;95544.31;;;13.47;60.09
41234;BME280;26968;42.686;23.352;2023-05-10T11:23:56;95544.38;;;13.42;60.02
41234;BME280;26968;42.686;23.352;2023-05-10T11:26:32;95547.81;;;13.42;59.25
41234;BME280;26968;42.686;23.352;2023-05-10T11:28:57;95526.97;;;13.49;60.94
41234;BME280;26968;42.686;23.352;2023-05-10T11:31:27;95545.00;;;13.58;59.31
41234;BME280;26968;42.686;23.352;2023-05-10T11:33:58;95506.50;;;13.45;60.63
41234;BME280;26968;42.686;23.352;2023-05-10T11:36:28;95534.78;;;13.41;61.27
41234;BME280;26968;42.686;23.352;2023-05-10T11:38:55;95543.09;;;13.58;59.89
41234;BME280;26968;42.686;23.352;2023-05-10T11:41:23;95506.09;;;13.33;58.45
41234;BME280;26968;42.686;23.352;2023-05-10T11:43:53;95495.88;;;13.16;59.58
41234;BME280;26968;42.686;23.352;2023-05-10T11:46:23;95419.53;;;12.49;59.80
41234;BME280;26968;42.686;23.352;2023-05-10T11:48:55;95518.38;;;13.29;59.67
41234;BME280;26968;42.686;23.352;2023-05-10T11:51:24;95472.56;;;12.98;59.20
41234;BME280;26968;42.686;23.352;2023-05-10T11:53:53;95543.41;;;13.28;59.69
41234;BME280;26968;42.686;23.352;2023-05-10T11:56:21;95538.25;;;13.41;60.69
41234;BME280;26968;42.686;23.352;2023-05-10T11:58:53;95541.53;;;13.28;61.20
41234;BME280;26968;42.686;23.352;2023-05-10T12:01:18;95485.84;;;13.03;61.60
41234;BME280;26968;42.686;23.352;2023-05-10T12:03:48;95435.00;;;12.75;61.64
41234;BME280;26968;42.686;23.352;2023-05-10T12:06:14;95534.00;;;13.40;60.08
41234;BME280;26968;42.686;23.352;2023-05-10T12:08:44;95528.41;;;13.37;60.12
41234;BME280;26968;42.686;23.352;2023-05-10T12:11:12;95531.03;;;13.42;61.34
41234;BME280;26968;42.686;23.352;2023-05-10T12:13:43;95526.16;;;13.25;60.14
41234;BME280;26968;42.686;23.352;2023-05-10T12:16:18;95533.47;;;13.38;60.50
41234;BME280;26968;42.686;23.352;2023-05-10T12:18:44;95481.88;;;13.00;60.02
41234;BME280;26968;42.686;23.352;2023-05-10T12:21:11;95485.16;;;13.21;59.75
41234;BME280;26968;42.686;23.352;2023-05-10T12:23:40;95530.38;;;13.55;60.92
41234;BME280;26968;42.686;23.352;2023-05-10T12:26:06;95491.66;;;13.10;60.04
41234;BME280;26968;42.686;23.352;2023-05-10T12:28:33;95523.94;;;13.32;61.60
41234;BME280;26968;42.686;23.352;2023-05-10T12:30:59;95520.34;;;13.18;60.11
41234;BME280;26968;42.686;23.352;2023-05-10T12:33:25;95521.28;;;13.32;60.08
41234;BME280;26968;42.686;23.352;2023-05-10T12:35:54;95505.97;;;13.43;60.42
41234;BME280;26968;42.686;23.352;2023-05-10T12:38:36;95432.91;;;12.72;58.93
41234;BME280;26968;42.686;23.352;2023-05-10T12:41:05;95507.78;;;13.24;60.81
41234;BME280;26968;42.686;23.352;2023-05-10T12:43:31;95489.22;;;13.13;60.59
41234;BME280;26968;42.686;23.352;2023-05-10T12:45:58;95501.59;;;13.28;59.72
41234;BME280;26968;42.686;23.352;2023-05-10T12:48:23;95470.59;;;13.13;59.76
41234;BME280;26968;42.686;23.352;2023-05-10T12:50:49;95483.00;;;13.23;59.64
41234;BME280;26968;42.686;23.352;2023-05-10T12:53:15;95463.97;;;13.06;59.38
41234;BME280;26968;42.686;23.352;2023-05-10T12:55:46;95494.03;;;13.40;59.40
41234;BME280;26968;42.686;23.352;2023-05-10T12:58:12;95444.22;;;13.12;59.14
41234;BME280;26968;42.686;23.352;2023-05-10T13:00:39;95499.56;;;13.44;59.09
41234;BME280;26968;42.686;23.352;2023-05-10T13:03:05;95385.97;;;12.82;58.95